Time;durP1;ratioP1;P1;durP2;ratioP2;P2;SDS_P1;SDS_P2;PMS_P1;PMS_P2;Temp;Humidity;BMP_temperature;BMP_pressure;BME280_temperature;BME280_humidity;BME280_pressure;Samples;Min_cycle;Max_cycle;Signal;HPM_P1;HPM_P2
2024/03/06 00:00:42;;;;;;;17.90;14.15;;;8.30;99.90;;;;;;5014381;28;20629;-78
2024/03/06 00:03:09;;;;;;;19.40;16.15;;;8.30;99.90;;;;;;5014478;28;20569;-77
2024/03/06 00:05:38;;;;;;;19.50;16.52;;;8.20;99.90;;;;;;5014518;28;20230;-77
2024/03/06 00:08:05;;;;;;;19.98;15.57;;;8.20;99.90;;;;;;5014612;28;20680;-76
2024/03/06 00:10:32;;;;;;;18.88;15.50;;;8.20;99.90;;;;;;5013728;28;20724;-77
2024/03/06 00:13:00;;;;;;;18.75;15.10;;;8.20;99.90;;;;;;5014380;28;20230;-77
2024/03/06 00:15:46;;;;;;;18.08;15.50;;;8.20;99.90;;;;;;5013987;28;20237;-78
2024/03/06 00:18:14;;;;;;;19.13;16.27;;;8.20;99.90;;;;;;5032628;28;20596;-78
2024/03/06 00:20:43;;;;;;;20.10;16.88;;;8.10;99.90;;;;;;5033811;28;20312;-78
2024/03/06 00:23:10;;;;;;;19.02;16.33;;;8.10;99.90;;;;;;5033522;28;20240;-78
2024/03/06 00:25:41;;;;;;;21.33;16.45;;;8.20;99.90;;;;;;5032278;28;20754;-78
2024/03/06 00:28:08;;;;;;;20.20;15.80;;;8.10;99.90;;;;;;5034487;28;20304;-78
2024/03/06 00:30:35;;;;;;;18.85;14.85;;;8.20;99.90;;;;;;5033471;28;20283;-78
2024/03/06 00:33:02;;;;;;;21.95;17.30;;;8.20;99.90;;;;;;5034148;28;20748;-78
2024/03/06 00:35:29;;;;;;;19.98;16.40;;;8.20;99.90;;;;;;5015442;28;20671;-78
2024/03/06 00:38:02;;;;;;;18.20;16.23;;;8.10;99.90;;;;;;5022742;28;20233;-77
2024/03/06 00:40:30;;;;;;;17.50;15.60;;;8.10;99.90;;;;;;5014579;28;20304;-77
2024/03/06 00:42:58;;;;;;;17.63;15.68;;;8.10;99.90;;;;;;5013804;28;20256;-78
2024/03/06 00:45:28;;;;;;;18.90;16.90;;;8.10;99.90;;;;;;5013681;28;20233;-78
2024/03/06 00:47:55;;;;;;;17.55;14.90;;;8.10;99.90;;;;;;5014176;28;20554;-77
2024/03/06 00:50:33;;;;;;;18.77;16.75;;;8.10;99.90;;;;;;5005105;28;20265;-77
2024/03/06 00:53:01;;;;;;;19.50;16.95;;;8.10;99.90;;;;;;5014077;28;20230;-77
2024/03/06 00:55:30;;;;;;;17.90;15.80;;;8.10;99.90;;;;;;5027545;28;20740;-77
2024/03/06 00:57:58;;;;;;;21.08;17.77;;;8.10;99.90;;;;;;5027393;28;20748;-77
2024/03/06 01:00:26;;;;;;;24.33;16.77;;;8.10;99.90;;;;;;5043129;28;20225;-78
2024/03/06 01:02:56;;;;;;;20.80;16.73;;;8.10;99.90;;;;;;5032180;28;20230;-79
2024/03/06 01:05:24;;;;;;;17.42;15.38;;;8.10;99.90;;;;;;5014937;28;20230;-79
2024/03/06 01:07:54;;;;;;;17.13;15.15;;;8.10;99.90;;;;;;5032433;28;20664;-78
2024/03/06 01:10:23;;;;;;;19.13;16.55;;;8.10;99.90;;;;;;5033151;28;20287;-79
2024/03/06 01:12:53;;;;;;;18.10;15.98;;;8.00;99.90;;;;;;5032972;28;20570;-79
2024/03/06 01:15:21;;;;;;;19.42;16.17;;;8.00;99.90;;;;;;5033253;28;20225;-78
2024/03/06 01:17:50;;;;;;;19.05;15.82;;;8.00;99.90;;;;;;5047428;28;20224;-78
2024/03/06 01:20:18;;;;;;;17.95;16.05;;;8.00;99.90;;;;;;5052789;28;20694;-79
2024/03/06 01:22:46;;;;;;;21.45;14.70;;;8.00;99.90;;;;;;5052639;28;20315;-79
2024/03/06 01:25:16;;;;;;;16.80;15.00;;;8.00;99.90;;;;;;5042896;28;20287;-78
2024/03/06 01:27:46;;;;;;;26.20;16.35;;;8.00;99.90;;;;;;5032724;28;20229;-78
2024/03/06 01:30:17;;;;;;;16.35;14.75;;;8.00;99.90;;;;;;5032155;28;20232;-79
2024/03/06 01:32:44;;;;;;;17.02;15.23;;;7.90;99.90;;;;;;5030477;28;20241;-79
2024/03/06 01:35:13;;;;;;;18.58;15.50;;;7.90;99.90;;;;;;5029936;28;20676;-78
2024/03/06 01:37:41;;;;;;;18.15;14.50;;;7.90;99.90;;;;;;5032654;28;20225;-79
2024/03/06 01:40:10;;;;;;;18.15;14.93;;;7.90;99.90;;;;;;5032758;28;20304;-79
2024/03/06 01:42:40;;;;;;;20.38;16.60;;;7.90;99.90;;;;;;5032540;28;20298;-78
2024/03/06 01:45:17;;;;;;;15.65;14.05;;;7.90;99.90;;;;;;5031743;28;20616;-79
2024/03/06 01:47:46;;;;;;;16.48;14.73;;;7.80;99.90;;;;;;5030886;28;20233;-78
2024/03/06 01:50:15;;;;;;;14.82;13.35;;;7.80;99.90;;;;;;5031722;28;20229;-78
2024/03/06 01:52:45;;;;;;;16.23;14.57;;;7.80;99.90;;;;;;5023191;28;20222;-78
2024/03/06 01:55:15;;;;;;;16.45;14.85;;;7.80;99.90;;;;;;5040293;28;20228;-78
2024/03/06 01:57:55;;;;;;;19.38;14.90;;;7.80;99.90;;;;;;5041137;28;20304;-78
2024/03/06 02:00:26;;;;;;;19.45;14.65;;;7.80;99.90;;;;;;5032078;28;20237;-79
2024/03/06 02:02:56;;;;;;;15.90;13.75;;;7.80;99.90;;;;;;5023502;28;20221;-79
2024/03/06 02:05:26;;;;;;;15.82;14.07;;;7.80;99.90;;;;;;5045561;28;20318;-78
2024/03/06 02:07:55;;;;;;;16.92;15.15;;;7.70;99.90;;;;;;5031528;28;20233;-78
2024/03/06 02:10:26;;;;;;;16.33;14.73;;;7.70;99.90;;;;;;5032556;28;20222;-77
2024/03/06 02:12:55;;;;;;;16.30;14.60;;;7.70;99.90;;;;;;5032523;28;20225;-78
2024/03/06 02:15:23;;;;;;;17.52;15.32;;;7.70;99.90;;;;;;5032204;28;20221;-77
2024/03/06 02:17:54;;;;;;;18.60;14.82;;;7.70;99.90;;;;;;5046932;28;20307;-78
2024/03/06 02:20:24;;;;;;;17.63;15.02;;;7.70;99.90;;;;;;5052578;28;20682;-77
2024/03/06 02:22:52;;;;;;;18.77;15.80;;;7.70;99.90;;;;;;5060497;28;20285;-77
2024/03/06 02:25:20;;;;;;;19.00;15.23;;;7.70;99.90;;;;;;5056215;28;20317;-77
2024/03/06 02:27:48;;;;;;;15.35;13.85;;;7.70;99.90;;;;;;5041577;28;20582;-77
2024/03/06 02:30:16;;;;;;;19.60;14.43;;;7.70;99.90;;;;;;5052309;28;20221;-77
2024/03/06 02:32:43;;;;;;;16.35;13.40;;;7.70;99.90;;;;;;5051762;28;20228;-77
2024/03/06 02:35:11;;;;;;;17.30;15.60;;;7.70;99.90;;;;;;5051644;28;20228;-77
2024/03/06 02:37:39;;;;;;;16.55;14.65;;;7.70;99.90;;;;;;5056473;28;20303;-77
2024/03/06 02:40:10;;;;;;;16.17;13.65;;;7.70;99.90;;;;;;5052837;28;20216;-77
2024/03/06 02:42:38;;;;;;;19.75;16.02;;;7.70;99.90;;;;;;5052470;28;20707;-76
2024/03/06 02:45:07;;;;;;;15.65;13.98;;;7.70;99.90;;;;;;5050876;28;20670;-77
2024/03/06 02:47:39;;;;;;;16.45;14.68;;;7.70;99.90;;;;;;5048655;28;20320;-77
2024/03/06 02:50:07;;;;;;;20.55;15.90;;;7.70;99.90;;;;;;5051286;28;20690;-76
2024/03/06 02:52:34;;;;;;;19.48;14.20;;;7.60;99.90;;;;;;5052419;28;20237;-77
2024/03/06 02:55:03;;;;;;;17.35;15.55;;;7.60;99.90;;;;;;5052195;28;20323;-76
2024/03/06 02:57:30;;;;;;;18.38;14.80;;;7.60;99.90;;;;;;5051802;28;20232;-76
2024/03/06 02:59:58;;;;;;;16.70;14.95;;;7.60;99.90;;;;;;5052288;28;20229;-76
2024/03/06 03:02:26;;;;;;;17.13;15.32;;;7.60;99.90;;;;;;5051479;28;20225;-76
2024/03/06 03:04:53;;;;;;;18.73;15.20;;;7.70;99.90;;;;;;5051739;28;20223;-76
2024/03/06 03:07:20;;;;;;;16.67;14.88;;;7.70;99.90;;;;;;5051415;28;20316;-76
2024/03/06 03:09:48;;;;;;;17.25;15.35;;;7.60;99.90;;;;;;5051597;28;20229;-75
2024/03/06 03:12:16;;;;;;;15.75;14.15;;;7.60;99.90;;;;;;5054157;28;20228;-76
2024/03/06 03:14:44;;;;;;;17.35;15.55;;;7.60;99.90;;;;;;5055735;28;20221;-76
2024/03/06 03:17:15;;;;;;;16.38;14.50;;;7.60;99.90;;;;;;5055031;28;20339;-76
2024/03/06 03:19:42;;;;;;;20.63;15.80;;;7.60;99.90;;;;;;5055488;28;20603;-76
2024/03/06 03:22:10;;;;;;;16.50;14.77;;;7.60;99.90;;;;;;5054524;28;20598;-76
2024/03/06 03:24:37;;;;;;;19.58;15.95;;;7.60;99.90;;;;;;5055331;28;20732;-76
2024/03/06 03:27:04;;;;;;;18.50;16.60;;;7.60;99.90;;;;;;5055339;28;20225;-77
2024/03/06 03:29:33;;;;;;;17.00;15.25;;;7.60;99.90;;;;;;5055285;28;20229;-76
2024/03/06 03:32:00;;;;;;;18.02;16.20;;;7.50;99.90;;;;;;5055260;28;20311;-76
2024/03/06 03:34:27;;;;;;;18.40;14.38;;;7.50;99.90;;;;;;5055014;28;20717;-76
2024/03/06 03:36:54;;;;;;;17.27;15.45;;;7.50;99.90;;;;;;5054779;28;20290;-77
2024/03/06 03:39:24;;;;;;;16.90;15.10;;;7.50;99.90;;;;;;5055053;28;20228;-76
2024/03/06 03:41:51;;;;;;;16.58;14.82;;;7.50;99.90;;;;;;5054748;28;20231;-76
2024/03/06 03:44:19;;;;;;;15.45;13.75;;;7.50;99.90;;;;;;5054243;28;20229;-76
2024/03/06 03:46:48;;;;;;;15.57;13.63;;;7.40;99.90;;;;;;5054743;28;20225;-76
2024/03/06 03:49:16;;;;;;;14.68;13.15;;;7.50;99.90;;;;;;5054256;28;20228;-77
2024/03/06 03:51:43;;;;;;;17.15;14.32;;;7.40;99.90;;;;;;5054161;28;20251;-76
2024/03/06 03:54:10;;;;;;;16.67;14.88;;;7.40;99.90;;;;;;5054742;28;20228;-76
2024/03/06 03:56:37;;;;;;;18.20;14.90;;;7.40;99.90;;;;;;5054878;28;20548;-76
2024/03/06 03:59:04;;;;;;;18.58;16.63;;;7.40;99.90;;;;;;5054362;28;20310;-76
2024/03/06 04:01:31;;;;;;;16.40;14.70;;;7.40;99.90;;;;;;5053547;28;20228;-76
2024/03/06 04:04:00;;;;;;;16.02;14.32;;;7.40;99.90;;;;;;5054427;28;20232;-76
2024/03/06 04:06:27;;;;;;;18.50;15.23;;;7.40;99.90;;;;;;5054150;28;20704;-76
2024/03/06 04:08:54;;;;;;;16.90;15.13;;;7.30;99.90;;;;;;5053989;28;20286;-76
2024/03/06 04:11:21;;;;;;;17.83;15.18;;;7.30;99.90;;;;;;5054350;28;20228;-76
2024/03/06 04:13:48;;;;;;;16.67;14.65;;;7.30;99.90;;;;;;5054486;28;20273;-76
2024/03/06 04:16:18;;;;;;;19.90;15.45;;;7.30;99.90;;;;;;5053430;28;20228;-76
2024/03/06 04:18:46;;;;;;;17.20;15.07;;;7.30;99.90;;;;;;5054587;28;20614;-76
2024/03/06 04:21:14;;;;;;;16.23;14.38;;;7.30;99.90;;;;;;5054048;28;20255;-76
2024/03/06 04:23:43;;;;;;;17.50;14.35;;;7.20;99.90;;;;;;5053278;28;20233;-76
2024/03/06 04:26:10;;;;;;;17.35;15.20;;;7.30;99.90;;;;;;5052170;28;20225;-76
2024/03/06 04:28:37;;;;;;;17.33;15.48;;;7.30;99.90;;;;;;5053441;28;20224;-76
2024/03/06 04:31:12;;;;;;;17.42;15.55;;;7.30;99.90;;;;;;5054248;28;20232;-76
2024/03/06 04:33:42;;;;;;;16.65;14.95;;;7.30;99.90;;;;;;5041804;28;20227;-77
2024/03/06 04:36:09;;;;;;;20.02;15.40;;;7.30;99.90;;;;;;5053757;28;20217;-76
2024/03/06 04:38:39;;;;;;;18.40;15.45;;;7.30;99.90;;;;;;5053579;28;20235;-77
2024/03/06 04:41:07;;;;;;;23.10;15.45;;;7.30;99.90;;;;;;5053705;28;20263;-76
2024/03/06 04:43:38;;;;;;;20.55;16.77;;;7.30;99.90;;;;;;5053350;28;20610;-76
2024/03/06 04:46:06;;;;;;;22.45;18.48;;;7.20;99.90;;;;;;5053476;28;20286;-76
2024/03/06 04:48:33;;;;;;;27.42;19.73;;;7.20;99.90;;;;;;5052442;28;20237;-78
2024/03/06 04:51:02;;;;;;;25.42;18.42;;;7.10;99.90;;;;;;5053257;28;20224;-78
2024/03/06 04:56:20;;;;;;;24.00;16.80;;;7.10;99.90;;;;;;5053478;28;21049;-78
2024/03/06 04:58:49;;;;;;;25.48;17.88;;;7.10;99.90;;;;;;5052996;28;20227;-77
2024/03/06 05:01:16;;;;;;;25.80;19.63;;;7.10;99.90;;;;;;5053832;28;20224;-77
2024/03/06 05:03:43;;;;;;;30.70;20.73;;;7.20;99.90;;;;;;5052616;28;20228;-77
2024/03/06 05:06:10;;;;;;;26.40;20.45;;;7.10;99.90;;;;;;5053700;28;20234;-76
2024/03/06 05:08:37;;;;;;;23.60;18.00;;;7.10;99.90;;;;;;5052987;28;20232;-76
2024/03/06 05:11:06;;;;;;;21.45;17.92;;;7.10;99.90;;;;;;5053293;28;20725;-76
2024/03/06 05:13:34;;;;;;;23.35;19.02;;;7.10;99.90;;;;;;5053196;28;20239;-76
2024/03/06 05:16:01;;;;;;;30.17;19.00;;;7.00;99.90;;;;;;5053410;28;20614;-76
2024/03/06 05:18:28;;;;;;;23.10;19.90;;;7.00;99.90;;;;;;5072986;28;20228;-76
2024/03/06 05:20:55;;;;;;;30.10;20.95;;;7.00;99.90;;;;;;5072956;28;20223;-76
2024/03/06 05:23:23;;;;;;;25.00;18.23;;;7.00;99.90;;;;;;5073101;28;20297;-78
2024/03/06 05:25:50;;;;;;;20.38;18.13;;;6.90;99.90;;;;;;5054182;28;20232;-76
2024/03/06 05:28:17;;;;;;;22.38;16.30;;;6.90;99.90;;;;;;5052475;28;20223;-76
2024/03/06 05:30:45;;;;;;;21.38;16.85;;;6.90;99.90;;;;;;5051956;28;20691;-78
2024/03/06 05:33:13;;;;;;;19.90;15.55;;;6.90;99.90;;;;;;5052840;28;20252;-76
2024/03/06 05:35:40;;;;;;;20.00;16.00;;;6.90;99.90;;;;;;5051147;28;20666;-76
2024/03/06 05:38:09;;;;;;;20.02;16.02;;;6.90;99.90;;;;;;5050827;28;20228;-78
2024/03/06 05:40:37;;;;;;;23.05;17.55;;;6.90;99.90;;;;;;5050638;28;20221;-76
2024/03/06 05:43:05;;;;;;;20.45;17.75;;;6.90;99.90;;;;;;5051089;28;20282;-76
2024/03/06 05:45:32;;;;;;;18.98;16.77;;;6.90;99.90;;;;;;5050999;28;20683;-76
2024/03/06 05:48:00;;;;;;;20.73;15.38;;;6.90;99.90;;;;;;5051261;28;20679;-76
2024/03/06 05:50:27;;;;;;;25.23;17.92;;;6.90;99.90;;;;;;5051109;28;20229;-76
2024/03/06 05:52:56;;;;;;;23.45;15.95;;;6.90;99.90;;;;;;5052057;28;20224;-76
2024/03/06 05:55:23;;;;;;;20.95;18.70;;;6.90;99.90;;;;;;5052839;28;20240;-76
2024/03/06 05:57:50;;;;;;;19.25;17.30;;;6.80;99.90;;;;;;5050768;28;20293;-76
2024/03/06 06:00:18;;;;;;;24.00;16.02;;;6.80;99.90;;;;;;5052248;28;20728;-76
2024/03/06 06:02:46;;;;;;;23.65;19.40;;;6.80;99.90;;;;;;5051025;28;20260;-78
2024/03/06 06:05:14;;;;;;;21.88;17.52;;;6.70;99.90;;;;;;5052950;28;20224;-76
2024/03/06 06:07:41;;;;;;;18.65;16.20;;;6.70;99.90;;;;;;5052319;28;20239;-76
2024/03/06 06:10:09;;;;;;;17.77;15.23;;;6.70;99.90;;;;;;5053030;28;20228;-76
2024/03/06 06:12:36;;;;;;;20.00;17.23;;;6.60;99.90;;;;;;5052152;28;20577;-76
2024/03/06 06:15:04;;;;;;;19.52;16.30;;;6.60;99.90;;;;;;5052874;28;20574;-76
2024/03/06 06:17:31;;;;;;;20.85;16.10;;;6.60;99.90;;;;;;5052786;28;20229;-76
2024/03/06 06:20:00;;;;;;;25.25;16.85;;;6.60;99.90;;;;;;5052530;28;20227;-75
2024/03/06 06:22:30;;;;;;;20.42;18.17;;;6.60;99.90;;;;;;5052716;28;20720;-76
2024/03/06 06:24:57;;;;;;;25.20;19.13;;;6.70;99.90;;;;;;5052309;28;20310;-76
2024/03/06 06:27:25;;;;;;;22.83;18.65;;;6.60;99.90;;;;;;5052454;28;20216;-78
2024/03/06 06:29:54;;;;;;;23.25;16.08;;;6.60;99.90;;;;;;5051849;28;20535;-78
2024/03/06 06:32:21;;;;;;;24.35;18.75;;;6.70;99.90;;;;;;5052646;28;20251;-79
2024/03/06 06:34:51;;;;;;;22.25;19.02;;;6.70;99.90;;;;;;5052444;28;20224;-78
2024/03/06 06:37:19;;;;;;;23.30;19.10;;;6.70;99.90;;;;;;5052646;28;20221;-78
2024/03/06 06:39:48;;;;;;;23.70;17.70;;;6.70;99.90;;;;;;5049064;28;20224;-78
2024/03/06 06:42:15;;;;;;;21.80;18.50;;;6.70;99.90;;;;;;5059383;28;20249;-79
2024/03/06 06:44:42;;;;;;;23.13;19.73;;;6.70;99.90;;;;;;5052412;28;20225;-76
2024/03/06 06:47:09;;;;;;;24.33;18.10;;;6.80;99.90;;;;;;5056138;28;20220;-76
2024/03/06 06:49:47;;;;;;;23.75;18.35;;;6.70;99.90;;;;;;5056433;28;20682;-76
2024/03/06 06:52:15;;;;;;;22.95;16.48;;;6.70;99.90;;;;;;5055955;28;20224;-76
2024/03/06 06:54:43;;;;;;;18.75;16.20;;;6.80;99.90;;;;;;5047203;28;20751;-76
2024/03/06 06:57:10;;;;;;;27.92;17.20;;;6.80;99.90;;;;;;5055966;28;20303;-79
2024/03/06 06:59:37;;;;;;;21.17;17.33;;;6.80;99.90;;;;;;5055981;28;20673;-79
2024/03/06 07:02:05;;;;;;;24.23;17.77;;;6.70;99.90;;;;;;5055797;28;20224;-77
2024/03/06 07:04:32;;;;;;;22.50;17.08;;;6.70;99.90;;;;;;5048150;28;20244;-77
2024/03/06 07:06:59;;;;;;;21.17;17.65;;;6.70;99.90;;;;;;5055119;28;20231;-75
2024/03/06 07:09:29;;;;;;;20.88;16.65;;;6.70;99.90;;;;;;5056149;28;20220;-78
2024/03/06 07:11:56;;;;;;;20.48;16.35;;;6.70;99.90;;;;;;5055666;28;20228;-78
2024/03/06 07:14:25;;;;;;;24.55;16.98;;;6.70;99.90;;;;;;5055557;28;20228;-78
2024/03/06 07:16:52;;;;;;;19.65;17.58;;;6.80;99.90;;;;;;5055960;28;20670;-78
2024/03/06 07:19:19;;;;;;;21.52;18.25;;;6.80;99.90;;;;;;5055434;28;20250;-78
2024/03/06 07:21:49;;;;;;;19.83;16.42;;;6.90;99.90;;;;;;5055540;28;20217;-75
2024/03/06 07:24:16;;;;;;;21.05;17.45;;;7.00;99.90;;;;;;5055084;28;20687;-75
2024/03/06 07:26:44;;;;;;;17.35;15.35;;;7.00;99.90;;;;;;5055982;28;20224;-77
2024/03/06 07:29:14;;;;;;;19.05;16.40;;;7.10;99.90;;;;;;5054609;28;20258;-78
2024/03/06 07:31:44;;;;;;;21.17;16.73;;;7.10;99.90;;;;;;5055151;28;20302;-78
2024/03/06 07:34:11;;;;;;;22.23;17.25;;;7.20;99.90;;;;;;5054670;28;20675;-75
2024/03/06 07:36:38;;;;;;;18.40;16.58;;;7.30;99.90;;;;;;5054685;28;20220;-76
2024/03/06 07:39:05;;;;;;;19.58;16.58;;;7.40;99.90;;;;;;5054769;28;20235;-75
2024/03/06 07:41:33;;;;;;;22.30;17.05;;;7.40;99.90;;;;;;5046799;28;20237;-78
2024/03/06 07:44:00;;;;;;;18.15;15.18;;;7.50;99.90;;;;;;5054605;28;20232;-76
2024/03/06 07:46:27;;;;;;;17.45;15.50;;;7.50;99.90;;;;;;5055235;28;20220;-76
2024/03/06 07:48:56;;;;;;;19.13;16.27;;;7.60;99.90;;;;;;5055192;28;20232;-76
2024/03/06 07:51:23;;;;;;;15.82;13.88;;;7.70;99.90;;;;;;5054646;28;20221;-75
2024/03/06 07:53:50;;;;;;;16.75;14.95;;;7.70;99.90;;;;;;5054860;28;20235;-76
2024/03/06 07:56:17;;;;;;;14.77;13.23;;;7.80;99.90;;;;;;5054439;28;20231;-75
2024/03/06 07:58:47;;;;;;;16.67;14.10;;;7.90;99.90;;;;;;5054804;28;20303;-76
2024/03/06 08:01:14;;;;;;;15.10;13.30;;;7.90;99.90;;;;;;5054402;28;20224;-75
2024/03/06 08:03:43;;;;;;;18.33;15.38;;;7.90;99.90;;;;;;5054975;28;20229;-76
2024/03/06 08:06:11;;;;;;;20.02;15.00;;;8.00;99.90;;;;;;5054509;28;20256;-76
2024/03/06 08:08:41;;;;;;;15.45;13.60;;;8.00;99.90;;;;;;5053940;28;20220;-76
2024/03/06 08:11:10;;;;;;;19.35;15.40;;;8.00;99.90;;;;;;5053878;28;20232;-77
2024/03/06 08:13:37;;;;;;;15.77;14.25;;;8.00;99.90;;;;;;5054759;28;20241;-77
2024/03/06 08:16:05;;;;;;;18.85;13.20;;;8.00;99.90;;;;;;5054311;28;20224;-76
2024/03/06 08:18:34;;;;;;;15.38;13.68;;;8.10;99.90;;;;;;5054579;28;20568;-76
2024/03/06 08:21:01;;;;;;;15.23;13.30;;;8.10;99.90;;;;;;5054646;28;20231;-77
2024/03/06 08:23:30;;;;;;;16.02;14.25;;;8.10;99.90;;;;;;5034329;28;20296;-76
2024/03/06 08:25:57;;;;;;;15.25;13.68;;;8.10;99.90;;;;;;5039558;28;20608;-77
2024/03/06 08:28:24;;;;;;;16.02;14.38;;;8.20;99.90;;;;;;5034796;28;20232;-77
2024/03/06 08:30:52;;;;;;;14.18;12.18;;;8.20;99.90;;;;;;5034565;28;20320;-76
2024/03/06 08:33:20;;;;;;;14.82;13.13;;;8.30;99.90;;;;;;5033369;28;20237;-76
2024/03/06 08:35:47;;;;;;;17.10;13.73;;;8.40;99.90;;;;;;5034195;28;20228;-76
2024/03/06 08:38:15;;;;;;;14.73;13.23;;;8.50;99.90;;;;;;5033711;28;20229;-76
2024/03/06 08:40:45;;;;;;;14.73;12.63;;;8.50;99.90;;;;;;5034469;28;20229;-76
2024/03/06 08:43:12;;;;;;;15.15;13.55;;;8.60;99.90;;;;;;5033878;28;20257;-76
2024/03/06 08:45:39;;;;;;;14.65;13.02;;;8.60;99.90;;;;;;5034241;28;20218;-76
2024/03/06 08:48:11;;;;;;;14.82;12.02;;;8.70;99.90;;;;;;5034245;28;20236;-76
2024/03/06 08:50:38;;;;;;;13.05;11.45;;;8.80;99.90;;;;;;5033689;28;20244;-76
2024/03/06 08:53:05;;;;;;;16.38;11.30;;;8.80;99.90;;;;;;5034191;28;20229;-79
2024/03/06 08:55:32;;;;;;;13.93;12.00;;;8.90;99.90;;;;;;5033876;28;20229;-79
2024/03/06 08:58:01;;;;;;;12.85;11.45;;;9.00;99.90;;;;;;5034137;28;20234;-79
2024/03/06 09:00:28;;;;;;;13.80;11.05;;;9.00;99.90;;;;;;5033079;28;20240;-78
2024/03/06 09:02:55;;;;;;;12.30;10.80;;;9.00;99.90;;;;;;5034038;28;20237;-79
2024/03/06 09:05:22;;;;;;;12.65;10.77;;;9.10;99.90;;;;;;5033450;28;20236;-79
2024/03/06 09:07:49;;;;;;;12.35;10.95;;;9.10;99.90;;;;;;5033548;28;20232;-79
2024/03/06 09:10:18;;;;;;;14.45;12.45;;;9.20;99.90;;;;;;5032824;28;20228;-78
2024/03/06 09:12:46;;;;;;;12.45;10.63;;;9.20;99.90;;;;;;5033693;28;20239;-79
2024/03/06 09:15:16;;;;;;;13.75;12.35;;;9.30;99.90;;;;;;5033660;28;20226;-79
2024/03/06 09:17:44;;;;;;;13.82;12.45;;;9.40;99.90;;;;;;5033340;28;20225;-79
2024/03/06 09:20:12;;;;;;;12.85;11.55;;;9.40;99.90;;;;;;5033569;28;20217;-79
2024/03/06 09:22:39;;;;;;;11.50;10.32;;;9.50;99.90;;;;;;5032956;28;20233;-79
2024/03/06 09:25:07;;;;;;;13.35;12.05;;;9.50;99.90;;;;;;5033472;28;20225;-79
2024/03/06 09:27:33;;;;;;;13.77;10.63;;;9.50;99.90;;;;;;5033250;28;20225;-79
2024/03/06 09:30:00;;;;;;;12.68;11.10;;;9.50;99.90;;;;;;5033248;28;20221;-79
2024/03/06 09:32:29;;;;;;;10.70;9.60;;;9.50;99.90;;;;;;5032696;28;20240;-79
2024/03/06 09:34:56;;;;;;;9.38;8.48;;;9.60;99.90;;;;;;5033420;28;20225;-79
2024/03/06 09:37:23;;;;;;;9.68;8.73;;;9.60;99.90;;;;;;5033009;28;20556;-79
2024/03/06 09:39:50;;;;;;;10.90;9.77;;;9.50;99.90;;;;;;5033433;28;20227;-79
2024/03/06 09:42:18;;;;;;;10.27;9.20;;;9.60;99.90;;;;;;5033039;28;20324;-79
2024/03/06 09:44:47;;;;;;;11.10;9.48;;;9.60;99.90;;;;;;5033003;28;20232;-79
2024/03/06 09:47:16;;;;;;;14.05;10.13;;;9.70;99.90;;;;;;5033360;28;20232;-79
2024/03/06 09:49:45;;;;;;;12.35;11.02;;;9.70;99.90;;;;;;5032566;28;20725;-79
2024/03/06 09:52:12;;;;;;;11.43;10.23;;;9.70;99.90;;;;;;5033289;28;20684;-79
2024/03/06 09:54:40;;;;;;;12.27;11.00;;;9.80;99.90;;;;;;5032739;28;20229;-79
2024/03/06 09:57:07;;;;;;;11.90;10.20;;;9.80;99.90;;;;;;5033279;28;20225;-79
2024/03/06 09:59:34;;;;;;;10.73;9.73;;;9.80;99.90;;;;;;5032792;28;20687;-76
2024/03/06 10:02:03;;;;;;;13.85;11.13;;;9.90;99.90;;;;;;5033201;28;20225;-75
2024/03/06 10:04:34;;;;;;;13.93;10.95;;;9.90;99.90;;;;;;5032036;28;20314;-78
2024/03/06 10:07:02;;;;;;;12.57;10.43;;;9.90;99.90;;;;;;5032994;28;20229;-76
2024/03/06 10:09:31;;;;;;;11.73;10.52;;;10.00;99.90;;;;;;5032663;28;20240;-78
2024/03/06 10:11:58;;;;;;;13.35;11.10;;;10.00;99.90;;;;;;5032995;28;20560;-76
2024/03/06 10:14:25;;;;;;;13.38;11.95;;;10.00;99.90;;;;;;5032391;28;20320;-75
2024/03/06 10:16:57;;;;;;;11.35;10.25;;;10.00;99.90;;;;;;5032970;28;20237;-76
2024/03/06 10:19:27;;;;;;;10.90;9.60;;;10.00;99.90;;;;;;5032385;28;20236;-76
2024/03/06 10:21:55;;;;;;;11.63;10.45;;;10.10;99.90;;;;;;5036895;28;20702;-76
2024/03/06 10:24:24;;;;;;;13.68;12.27;;;10.10;99.90;;;;;;5036909;28;20229;-76
2024/03/06 10:26:54;;;;;;;10.50;9.45;;;10.10;99.90;;;;;;5045358;28;20225;-76
2024/03/06 10:29:24;;;;;;;13.27;10.90;;;10.10;99.90;;;;;;5056698;28;20224;-75
2024/03/06 10:31:54;;;;;;;11.10;9.77;;;10.10;99.90;;;;;;5056246;28;20246;-76
2024/03/06 10:34:22;;;;;;;10.73;9.65;;;10.10;99.90;;;;;;5056451;28;20229;-76
2024/03/06 10:36:57;;;;;;;9.00;8.20;;;10.10;99.90;;;;;;5056153;28;20533;-76
2024/03/06 10:39:26;;;;;;;10.30;9.23;;;10.20;99.90;;;;;;5056614;28;20240;-76
2024/03/06 10:41:54;;;;;;;11.45;9.18;;;10.20;99.90;;;;;;5056444;28;20243;-75
2024/03/06 10:44:25;;;;;;;11.88;9.25;;;10.20;99.90;;;;;;5056543;28;20236;-78
2024/03/06 10:47:00;;;;;;;12.35;9.65;;;10.20;99.90;;;;;;5056312;28;20231;-78
2024/03/06 10:49:27;;;;;;;10.98;9.88;;;10.30;99.90;;;;;;5056269;28;20293;-78
2024/03/06 10:51:58;;;;;;;10.15;9.25;;;10.30;99.90;;;;;;5055855;28;20638;-78
2024/03/06 10:54:32;;;;;;;11.93;10.80;;;10.40;99.90;;;;;;5056226;28;20290;-78
2024/03/06 10:56:59;;;;;;;10.23;9.23;;;10.40;99.90;;;;;;5033199;28;20228;-78
2024/03/06 10:59:30;;;;;;;10.95;9.80;;;10.40;99.90;;;;;;5036170;28;20230;-79
2024/03/06 11:01:58;;;;;;;10.98;9.90;;;10.40;99.90;;;;;;5035981;28;20447;-78
2024/03/06 11:04:33;;;;;;;11.02;9.93;;;10.30;99.90;;;;;;5035905;28;20308;-78
2024/03/06 11:07:00;;;;;;;9.90;8.90;;;10.30;99.90;;;;;;5035673;28;20232;-78
2024/03/06 11:09:29;;;;;;;10.95;8.73;;;10.40;99.90;;;;;;5036062;28;20235;-78
2024/03/06 11:11:56;;;;;;;7.68;6.85;;;10.50;99.90;;;;;;5035831;28;20245;-78
2024/03/06 11:14:25;;;;;;;9.15;8.25;;;10.50;99.90;;;;;;5035974;28;20316;-78
2024/03/06 11:17:01;;;;;;;10.98;9.32;;;10.50;99.90;;;;;;5035636;28;20312;-78
2024/03/06 11:19:30;;;;;;;12.45;11.25;;;10.60;99.90;;;;;;5035738;28;20331;-78
2024/03/06 11:21:57;;;;;;;12.48;11.18;;;10.60;99.90;;;;;;5035984;28;20225;-78
2024/03/06 11:24:25;;;;;;;12.38;11.07;;;10.70;99.90;;;;;;5035631;28;20225;-79
2024/03/06 11:27:02;;;;;;;11.15;10.20;;;10.70;99.90;;;;;;5035470;28;20217;-79
2024/03/06 11:29:30;;;;;;;11.98;10.77;;;10.80;99.90;;;;;;5035590;28;20240;-79
2024/03/06 11:32:03;;;;;;;13.80;11.45;;;10.80;99.90;;;;;;5034382;28;20251;-78
2024/03/06 11:34:31;;;;;;;17.67;14.13;;;10.80;99.90;;;;;;5035583;28;20279;-78
2024/03/06 11:36:58;;;;;;;16.67;14.98;;;10.80;99.90;;;;;;5035141;28;20229;-78
2024/03/06 11:39:29;;;;;;;15.95;14.25;;;10.90;99.90;;;;;;5035827;28;20288;-78
2024/03/06 11:41:58;;;;;;;15.52;13.98;;;10.90;99.90;;;;;;5034936;28;20226;-78
2024/03/06 11:44:25;;;;;;;16.17;14.50;;;11.00;99.90;;;;;;5035228;28;20236;-79
2024/03/06 11:46:59;;;;;;;14.10;12.65;;;11.10;99.90;;;;;;5035154;28;20592;-77
2024/03/06 11:49:29;;;;;;;16.42;14.77;;;11.00;99.90;;;;;;5035417;28;20220;-78
2024/03/06 11:51:58;;;;;;;17.17;15.20;;;11.00;99.90;;;;;;5034922;28;20618;-78
2024/03/06 11:54:26;;;;;;;17.20;15.63;;;11.00;99.90;;;;;;5035258;28;20249;-78
2024/03/06 11:56:55;;;;;;;17.27;15.45;;;10.90;99.90;;;;;;5034919;28;20229;-78
2024/03/06 11:59:27;;;;;;;15.75;14.15;;;10.90;99.90;;;;;;5035081;28;20225;-78
2024/03/06 12:01:55;;;;;;;16.30;14.57;;;11.10;99.90;;;;;;5034572;28;20225;-77
2024/03/06 12:04:24;;;;;;;18.73;16.70;;;11.10;99.90;;;;;;5034993;28;20587;-78
2024/03/06 12:06:51;;;;;;;15.98;14.57;;;11.20;99.70;;;;;;5034722;28;20230;-77
2024/03/06 12:09:18;;;;;;;15.80;14.10;;;11.30;99.90;;;;;;5034808;28;20312;-78
2024/03/06 12:11:46;;;;;;;13.10;11.95;;;11.30;99.90;;;;;;5034727;28;20279;-78
2024/03/06 12:14:18;;;;;;;14.75;13.30;;;11.50;99.90;;;;;;5034476;28;20235;-80
2024/03/06 12:16:56;;;;;;;12.45;11.25;;;11.50;99.80;;;;;;5034761;28;20304;-78
2024/03/06 12:19:23;;;;;;;15.70;12.30;;;11.50;99.70;;;;;;5034522;28;20640;-78
2024/03/06 12:21:50;;;;;;;11.90;10.70;;;11.50;99.40;;;;;;5034973;28;20279;-78
2024/03/06 12:24:19;;;;;;;11.52;10.32;;;11.50;99.40;;;;;;5033791;28;20233;-78
2024/03/06 12:26:52;;;;;;;11.25;10.15;;;11.40;99.20;;;;;;5034611;28;20599;-78
2024/03/06 12:29:20;;;;;;;11.80;10.73;;;11.50;99.30;;;;;;5034291;28;20233;-78
2024/03/06 12:31:48;;;;;;;11.65;10.45;;;11.40;99.10;;;;;;5034802;28;20229;-78
2024/03/06 12:34:17;;;;;;;11.73;10.55;;;11.50;99.30;;;;;;5033827;28;20233;-75
2024/03/06 12:36:44;;;;;;;15.15;11.40;;;11.50;99.40;;;;;;5034529;28;20228;-76
2024/03/06 12:39:23;;;;;;;12.75;11.45;;;11.60;99.60;;;;;;5025657;28;20321;-75
2024/03/06 12:41:50;;;;;;;14.25;10.38;;;11.70;99.70;;;;;;5047196;28;20754;-77
2024/03/06 12:44:17;;;;;;;8.90;8.20;;;11.80;99.40;;;;;;5033462;28;20312;-76